Time;durP1;ratioP1;P1;durP2;ratioP2;P2;SDS_P1;SDS_P2;PMS_P1;PMS_P2;Temp;Humidity;BMP_temperature;BMP_pressure;BME280_temperature;BME280_humidity;BME280_pressure;Samples;Min_cycle;Max_cycle;Signal;HPM_P1;HPM_P2
2024/04/11 00:01:31;;;;;;;4.83;2.97;;;9.60;99.90;;;;;;5438385;26;20270;-68
2024/04/11 00:03:58;;;;;;;5.20;2.73;;;9.60;99.90;;;;;;5439022;26;20338;-67
2024/04/11 00:06:24;;;;;;;8.50;2.97;;;9.50;99.90;;;;;;5459164;26;20728;-66
2024/04/11 00:08:50;;;;;;;4.50;2.40;;;9.40;99.90;;;;;;5476682;26;20522;-69
2024/04/11 00:11:17;;;;;;;2.63;1.93;;;9.20;99.90;;;;;;5444668;26;20495;-68
2024/04/11 00:13:43;;;;;;;5.80;2.87;;;9.00;99.90;;;;;;5471517;26;20806;-68
2024/04/11 00:16:09;;;;;;;4.50;2.23;;;8.90;99.90;;;;;;5408935;26;20451;-68
2024/04/11 00:18:35;;;;;;;4.33;2.43;;;8.90;99.90;;;;;;5438440;26;20222;-68
2024/04/11 00:21:00;;;;;;;3.20;2.60;;;8.90;99.90;;;;;;5438614;26;20547;-67
2024/04/11 00:23:26;;;;;;;3.40;2.50;;;9.00;99.90;;;;;;5438346;26;20228;-67
2024/04/11 00:25:57;;;;;;;2.70;1.77;;;9.10;99.90;;;;;;5440234;26;20234;-69
2024/04/11 00:28:24;;;;;;;5.83;2.30;;;9.10;99.90;;;;;;5438546;26;20448;-69
2024/04/11 00:30:51;;;;;;;4.33;2.60;;;9.30;99.90;;;;;;5409416;26;21094;-68
2024/04/11 00:33:16;;;;;;;4.07;2.60;;;9.30;99.90;;;;;;5408477;26;20456;-68
2024/04/11 00:35:42;;;;;;;3.97;2.77;;;9.40;99.90;;;;;;5408636;26;20508;-66
2024/04/11 00:38:10;;;;;;;7.80;2.43;;;9.40;99.90;;;;;;5438561;26;20227;-67
2024/04/11 00:40:36;;;;;;;4.37;2.33;;;9.50;99.90;;;;;;5438101;26;20266;-67
2024/04/11 00:43:02;;;;;;;4.20;2.77;;;9.50;99.90;;;;;;5438426;26;21046;-69
2024/04/11 00:45:28;;;;;;;6.30;2.53;;;9.50;99.90;;;;;;5439924;26;20449;-67
2024/04/11 00:47:54;;;;;;;5.17;2.63;;;9.40;99.90;;;;;;5438559;26;20256;-68
2024/04/11 00:50:20;;;;;;;6.07;2.97;;;9.40;99.90;;;;;;5438352;26;20491;-68
2024/04/11 00:52:47;;;;;;;4.47;2.80;;;9.50;99.90;;;;;;5440048;26;20422;-68
2024/04/11 00:55:14;;;;;;;10.50;3.20;;;9.40;99.90;;;;;;5438485;26;20464;-68
2024/04/11 00:57:40;;;;;;;4.70;2.70;;;9.50;99.90;;;;;;5439976;26;20429;-68
2024/04/11 01:00:06;;;;;;;5.37;2.90;;;9.40;99.90;;;;;;5439890;26;20823;-68
2024/04/11 01:02:33;;;;;;;4.80;3.13;;;9.40;99.90;;;;;;5408735;26;20441;-67
2024/04/11 01:05:00;;;;;;;3.90;2.90;;;9.40;99.90;;;;;;5437809;26;20989;-67
2024/04/11 01:07:26;;;;;;;4.47;2.80;;;9.40;99.90;;;;;;5408726;26;20987;-68
2024/04/11 01:09:52;;;;;;;2.77;2.57;;;9.40;99.90;;;;;;5440086;26;20442;-68
2024/04/11 01:12:18;;;;;;;3.70;2.80;;;9.40;99.90;;;;;;5451294;26;20272;-69
2024/04/11 01:14:45;;;;;;;4.60;3.00;;;9.30;99.90;;;;;;5457951;26;20466;-68
2024/04/11 01:17:15;;;;;;;5.00;2.63;;;9.10;99.90;;;;;;5438299;26;20561;-68
2024/04/11 01:19:47;;;;;;;3.47;3.13;;;9.10;99.90;;;;;;5437810;26;20449;-68
2024/04/11 01:22:13;;;;;;;4.53;3.13;;;9.10;99.90;;;;;;5437893;26;20447;-68
2024/04/11 01:24:42;;;;;;;6.67;3.20;;;9.00;99.90;;;;;;5407787;26;20897;-68
2024/04/11 01:27:10;;;;;;;6.47;3.23;;;9.00;99.90;;;;;;5408413;26;20230;-69
2024/04/11 01:29:38;;;;;;;4.20;3.43;;;9.00;99.90;;;;;;5437918;26;20848;-68
2024/04/11 01:32:05;;;;;;;3.73;3.10;;;9.00;99.90;;;;;;5409844;26;20458;-67
2024/04/11 01:34:31;;;;;;;5.60;3.30;;;9.00;99.90;;;;;;5439443;26;20816;-68
2024/04/11 01:37:00;;;;;;;4.90;3.70;;;9.00;99.90;;;;;;5451020;26;20537;-68
2024/04/11 01:39:26;;;;;;;3.23;2.93;;;8.90;99.90;;;;;;5473795;26;20324;-68
2024/04/11 01:41:53;;;;;;;3.90;3.03;;;9.00;99.90;;;;;;5473564;26;20451;-68
2024/04/11 01:44:18;;;;;;;5.20;3.27;;;8.90;99.90;;;;;;5464150;26;20471;-68
2024/04/11 01:46:44;;;;;;;4.80;3.13;;;8.80;99.90;;;;;;5407434;26;21024;-68
2024/04/11 01:49:10;;;;;;;4.50;3.53;;;8.80;99.90;;;;;;5437365;26;20263;-68
2024/04/11 01:51:36;;;;;;;6.33;3.80;;;8.70;99.90;;;;;;5438118;26;20281;-68
2024/04/11 01:54:05;;;;;;;7.27;3.00;;;8.60;99.90;;;;;;5407113;26;20734;-68
2024/04/11 01:56:34;;;;;;;6.73;3.23;;;8.60;99.90;;;;;;5437103;26;20559;-68
2024/04/11 01:59:04;;;;;;;7.60;3.10;;;8.60;99.90;;;;;;5461447;26;20466;-68
2024/04/11 02:01:34;;;;;;;5.73;2.90;;;8.50;99.90;;;;;;5436902;26;20534;-67
2024/04/11 02:04:05;;;;;;;4.03;2.60;;;8.50;99.90;;;;;;5436155;26;20465;-68
2024/04/11 02:06:32;;;;;;;5.70;3.50;;;8.40;99.90;;;;;;5440753;26;20453;-68
2024/04/11 02:09:00;;;;;;;3.30;3.00;;;8.40;99.90;;;;;;5473294;26;20443;-68
2024/04/11 02:11:26;;;;;;;4.37;2.93;;;8.50;99.90;;;;;;5474976;26;20454;-68
2024/04/11 02:13:51;;;;;;;12.70;3.93;;;8.50;99.90;;;;;;5472732;26;21248;-66
2024/04/11 02:16:19;;;;;;;3.33;3.03;;;8.50;99.90;;;;;;5436848;26;20749;-67
2024/04/11 02:18:45;;;;;;;7.83;3.43;;;8.50;99.90;;;;;;5436427;26;20223;-68
2024/04/11 02:21:11;;;;;;;4.73;3.23;;;8.40;99.90;;;;;;5407255;26;20906;-67
2024/04/11 02:23:39;;;;;;;6.43;3.27;;;8.50;99.90;;;;;;5435793;26;20621;-68
2024/04/11 02:26:04;;;;;;;5.43;3.13;;;8.50;99.90;;;;;;5436389;26;20285;-69
2024/04/11 02:28:30;;;;;;;4.00;3.17;;;8.40;99.90;;;;;;5436946;26;20834;-68
2024/04/11 02:30:55;;;;;;;7.97;3.50;;;8.40;99.90;;;;;;5436801;26;20217;-68
2024/04/11 02:33:29;;;;;;;6.73;3.33;;;8.40;99.90;;;;;;5407032;26;20234;-68
2024/04/11 02:35:55;;;;;;;6.03;3.73;;;8.40;99.90;;;;;;5436353;26;20277;-68
2024/04/11 02:38:25;;;;;;;5.73;2.87;;;8.40;99.90;;;;;;5439818;26;20450;-67
2024/04/11 02:40:52;;;;;;;11.30;4.10;;;8.40;99.90;;;;;;5472718;26;20556;-68
2024/04/11 02:43:18;;;;;;;5.40;3.23;;;8.40;99.90;;;;;;5442293;26;20529;-68
2024/04/11 02:45:46;;;;;;;5.50;3.67;;;8.30;99.90;;;;;;5413462;26;20447;-69
2024/04/11 02:48:12;;;;;;;5.63;3.40;;;8.20;99.90;;;;;;5436362;26;20505;-69
2024/04/11 02:50:38;;;;;;;5.70;3.53;;;8.10;99.90;;;;;;5442882;26;20450;-67
2024/04/11 02:53:04;;;;;;;4.83;3.30;;;8.10;99.90;;;;;;5436488;26;20508;-67
2024/04/11 02:55:31;;;;;;;6.50;3.50;;;8.10;99.90;;;;;;5406745;26;20232;-69
2024/04/11 02:57:57;;;;;;;4.60;3.70;;;8.20;99.90;;;;;;5436467;26;20264;-68
2024/04/11 03:00:22;;;;;;;5.17;3.10;;;8.20;99.90;;;;;;5438046;26;21012;-68
2024/04/11 03:02:48;;;;;;;4.20;3.80;;;8.20;99.90;;;;;;5438264;26;20261;-68
2024/04/11 03:05:16;;;;;;;3.53;3.07;;;8.10;99.90;;;;;;5409321;26;20733;-68
2024/04/11 03:07:42;;;;;;;6.17;4.27;;;8.00;99.90;;;;;;5440162;26;20696;-68
2024/04/11 03:10:09;;;;;;;9.70;4.97;;;8.00;99.90;;;;;;5439539;26;20953;-68
2024/04/11 03:12:34;;;;;;;5.73;3.83;;;8.00;99.90;;;;;;5442641;26;20527;-68
2024/04/11 03:15:03;;;;;;;5.03;3.80;;;7.90;99.90;;;;;;5427997;26;20513;-67
2024/04/11 03:17:33;;;;;;;7.40;4.10;;;7.90;99.90;;;;;;5439550;26;20221;-68
2024/04/11 03:19:59;;;;;;;5.43;3.93;;;7.90;99.90;;;;;;5439186;26;20499;-69
2024/04/11 03:22:25;;;;;;;9.90;4.33;;;7.90;99.90;;;;;;5454260;26;20446;-69
2024/04/11 03:24:51;;;;;;;5.37;3.73;;;8.00;99.90;;;;;;5460445;26;20293;-68
2024/04/11 03:27:16;;;;;;;6.03;3.50;;;8.00;99.90;;;;;;5409751;26;20442;-68
2024/04/11 03:29:43;;;;;;;6.53;3.87;;;8.00;99.90;;;;;;5440621;26;20524;-67
2024/04/11 03:32:11;;;;;;;7.73;3.83;;;7.80;99.90;;;;;;5439381;26;20267;-67
2024/04/11 03:34:37;;;;;;;5.73;3.50;;;7.80;99.90;;;;;;5439419;26;20833;-68
2024/04/11 03:37:04;;;;;;;6.93;3.60;;;7.80;99.90;;;;;;5439260;26;20575;-68
2024/04/11 03:39:30;;;;;;;6.63;3.53;;;7.90;99.90;;;;;;5409354;26;21003;-70
2024/04/11 03:41:56;;;;;;;5.07;3.50;;;8.00;99.90;;;;;;5409267;26;20501;-68
2024/04/11 03:44:22;;;;;;;8.13;4.00;;;7.90;99.90;;;;;;5409242;26;20291;-68
2024/04/11 03:46:47;;;;;;;6.10;4.17;;;8.00;99.90;;;;;;5439822;26;20271;-69
2024/04/11 03:49:13;;;;;;;5.70;3.57;;;8.00;99.90;;;;;;5451906;26;20320;-69
2024/04/11 03:51:41;;;;;;;7.80;3.87;;;8.10;99.90;;;;;;5445218;26;20558;-68
2024/04/11 03:54:10;;;;;;;4.43;2.93;;;8.00;99.90;;;;;;5426944;26;20460;-68
2024/04/11 03:56:36;;;;;;;9.23;3.63;;;7.80;99.90;;;;;;5440419;26;20616;-69
2024/04/11 03:59:03;;;;;;;6.13;3.93;;;7.80;99.90;;;;;;5439075;26;20601;-68
2024/04/11 04:01:30;;;;;;;5.50;3.80;;;7.80;99.90;;;;;;5440871;26;20292;-69
2024/04/11 04:04:01;;;;;;;5.40;3.37;;;7.80;99.90;;;;;;5451881;26;20570;-69
2024/04/11 04:06:26;;;;;;;11.10;3.90;;;7.90;99.90;;;;;;5438407;26;20491;-68
2024/04/11 04:08:52;;;;;;;4.80;3.50;;;7.80;99.90;;;;;;5408927;26;20520;-69
2024/04/11 04:11:21;;;;;;;6.60;2.97;;;7.80;99.90;;;;;;5438715;26;20213;-69
2024/04/11 04:13:50;;;;;;;6.70;3.60;;;7.80;99.90;;;;;;5438685;26;20284;-68
2024/04/11 04:16:19;;;;;;;4.60;3.20;;;7.70;99.90;;;;;;5439578;26;20524;-69
2024/04/11 04:18:46;;;;;;;5.57;3.83;;;7.70;99.90;;;;;;5440339;26;20966;-69
2024/04/11 04:21:13;;;;;;;4.43;3.70;;;7.70;99.90;;;;;;5438792;26;20516;-69
2024/04/11 04:23:42;;;;;;;5.50;3.93;;;7.70;99.90;;;;;;5438774;26;20539;-68
2024/04/11 04:26:08;;;;;;;6.70;4.00;;;7.70;99.90;;;;;;5440417;26;20486;-69
2024/04/11 04:28:41;;;;;;;7.43;4.17;;;7.70;99.90;;;;;;5440282;26;20973;-69
2024/04/11 04:31:16;;;;;;;5.10;3.10;;;7.70;99.90;;;;;;5440303;26;20495;-68
2024/04/11 04:33:48;;;;;;;6.10;4.30;;;7.70;99.90;;;;;;5473026;26;20457;-68
2024/04/11 04:36:20;;;;;;;7.07;3.60;;;7.60;99.90;;;;;;5441300;26;20552;-68
2024/04/11 04:38:47;;;;;;;4.60;3.40;;;7.60;99.90;;;;;;5438356;26;20588;-69
2024/04/11 04:41:13;;;;;;;7.53;4.63;;;7.60;99.90;;;;;;5438494;26;20494;-69
2024/04/11 04:43:41;;;;;;;5.97;3.63;;;7.60;99.90;;;;;;5408177;26;20982;-69
2024/04/11 04:46:08;;;;;;;7.73;4.00;;;7.50;99.90;;;;;;5439899;26;20459;-68
2024/04/11 04:48:34;;;;;;;5.60;3.67;;;7.50;99.90;;;;;;5477220;26;20441;-68
2024/04/11 04:51:00;;;;;;;4.67;3.50;;;7.40;99.90;;;;;;5474403;26;20809;-68
2024/04/11 04:53:26;;;;;;;5.47;3.23;;;7.50;99.90;;;;;;5414202;26;20247;-68
2024/04/11 04:55:54;;;;;;;5.10;3.47;;;7.60;99.90;;;;;;5394574;26;20232;-68
2024/04/11 04:58:20;;;;;;;5.97;3.93;;;7.60;99.90;;;;;;5475877;26;20387;-68
2024/04/11 05:00:46;;;;;;;4.80;3.40;;;7.70;99.90;;;;;;5475659;26;20509;-67
2024/04/11 05:03:12;;;;;;;4.57;3.30;;;7.70;99.90;;;;;;5473811;26;20984;-67
2024/04/11 05:05:40;;;;;;;5.67;3.33;;;7.70;99.90;;;;;;5384247;26;20525;-67
2024/04/11 05:08:13;;;;;;;5.20;3.70;;;7.70;99.90;;;;;;5462358;26;20256;-68
2024/04/11 05:10:40;;;;;;;6.10;3.70;;;7.70;99.90;;;;;;5475692;26;20450;-67
2024/04/11 05:13:09;;;;;;;3.83;3.00;;;7.80;99.90;;;;;;5474163;26;21006;-68
2024/04/11 05:15:41;;;;;;;6.90;3.33;;;7.80;99.90;;;;;;5450915;26;20459;-67
2024/04/11 05:18:06;;;;;;;8.03;3.97;;;7.90;99.90;;;;;;5439619;26;20506;-68
2024/04/11 05:20:33;;;;;;;5.63;3.67;;;7.90;99.90;;;;;;5444623;26;20438;-68
2024/04/11 05:23:06;;;;;;;3.73;3.10;;;8.00;99.90;;;;;;5437408;26;20240;-68
2024/04/11 05:25:33;;;;;;;5.20;3.20;;;8.00;99.90;;;;;;5437400;26;20455;-68
2024/04/11 05:28:07;;;;;;;7.80;3.90;;;8.00;99.90;;;;;;5442419;26;20555;-69
2024/04/11 05:30:33;;;;;;;9.93;4.53;;;7.90;99.90;;;;;;5474595;26;20735;-68
2024/04/11 05:32:59;;;;;;;3.67;3.30;;;8.10;99.90;;;;;;5474855;26;20478;-69
2024/04/11 05:35:26;;;;;;;6.97;4.30;;;8.10;99.90;;;;;;5455428;26;20510;-68
2024/04/11 05:37:55;;;;;;;6.00;3.50;;;8.00;99.90;;;;;;5463724;26;20441;-68
2024/04/11 05:40:21;;;;;;;5.93;3.43;;;8.10;99.90;;;;;;5475471;26;20502;-68
2024/04/11 05:42:48;;;;;;;10.37;4.90;;;8.10;99.90;;;;;;5473516;26;20442;-68
2024/04/11 05:45:19;;;;;;;4.53;3.50;;;8.20;99.90;;;;;;5460768;26;20897;-68
2024/04/11 05:47:48;;;;;;;4.57;4.17;;;8.30;99.90;;;;;;5473448;26;20446;-68
2024/04/11 05:50:15;;;;;;;8.90;4.30;;;8.30;99.90;;;;;;5453869;26;20791;-68
2024/04/11 05:52:47;;;;;;;9.97;4.53;;;8.40;99.90;;;;;;5437513;26;20448;-68
2024/04/11 05:55:14;;;;;;;11.50;3.90;;;8.50;99.90;;;;;;5437339;26;20452;-68
2024/04/11 05:57:44;;;;;;;6.00;3.60;;;8.50;99.90;;;;;;5436884;26;20493;-68
2024/04/11 06:00:11;;;;;;;5.40;4.10;;;8.60;99.90;;;;;;5457430;26;20481;-69
2024/04/11 06:02:41;;;;;;;5.20;4.70;;;8.70;99.90;;;;;;5436907;26;20490;-69
2024/04/11 06:05:07;;;;;;;4.20;3.80;;;8.80;99.90;;;;;;5427656;26;20469;-68
2024/04/11 06:07:35;;;;;;;5.90;5.10;;;8.80;99.90;;;;;;5438763;26;20448;-69
2024/04/11 06:10:04;;;;;;;7.40;4.20;;;8.90;99.90;;;;;;5473240;26;20438;-68
2024/04/11 06:12:33;;;;;;;4.90;4.40;;;9.00;99.90;;;;;;5443861;26;20447;-68
2024/04/11 06:14:59;;;;;;;8.37;4.33;;;9.10;99.90;;;;;;5460689;26;20442;-68
2024/04/11 06:17:28;;;;;;;8.20;4.37;;;9.20;99.90;;;;;;5437111;26;20955;-68
2024/04/11 06:19:55;;;;;;;5.10;3.67;;;9.30;99.90;;;;;;5437038;26;20479;-68
2024/04/11 06:22:21;;;;;;;8.83;4.30;;;9.40;99.90;;;;;;5437092;26;20498;-69
2024/04/11 06:24:47;;;;;;;6.17;5.23;;;9.40;99.90;;;;;;5406495;26;21079;-69
2024/04/11 06:27:13;;;;;;;5.40;4.03;;;9.50;99.90;;;;;;5436967;26;20472;-67
2024/04/11 06:29:39;;;;;;;8.63;5.33;;;9.60;99.90;;;;;;5406575;26;20713;-68
2024/04/11 06:32:06;;;;;;;8.70;5.10;;;9.70;99.90;;;;;;5436090;26;20228;-68
2024/04/11 06:34:33;;;;;;;6.27;4.67;;;9.80;99.90;;;;;;5460697;26;20798;-68
2024/04/11 06:36:58;;;;;;;5.07;4.57;;;10.00;99.90;;;;;;5436219;26;21003;-68
2024/04/11 06:39:24;;;;;;;4.87;4.43;;;10.00;99.90;;;;;;5439497;26;20432;-68
2024/04/11 06:41:51;;;;;;;5.50;4.60;;;10.10;99.90;;;;;;5439756;26;20221;-68
2024/04/11 06:44:17;;;;;;;5.73;4.30;;;10.20;99.90;;;;;;5439651;26;20236;-67
2024/04/11 06:46:49;;;;;;;9.90;5.33;;;10.30;99.90;;;;;;5440337;26;20534;-68
2024/04/11 06:49:16;;;;;;;7.10;4.40;;;10.40;99.90;;;;;;5440636;26;20334;-68
2024/04/11 06:51:42;;;;;;;8.13;5.83;;;10.50;99.90;;;;;;5439754;26;20438;-69
2024/04/11 06:54:10;;;;;;;9.03;4.63;;;10.60;99.90;;;;;;5409642;26;20510;-68
2024/04/11 06:56:36;;;;;;;6.00;4.63;;;10.70;99.90;;;;;;5440043;26;20262;-68
2024/04/11 06:59:05;;;;;;;7.60;5.10;;;10.80;99.90;;;;;;5441742;26;20847;-68
2024/04/11 07:01:31;;;;;;;7.53;5.40;;;10.90;99.90;;;;;;5441227;26;20507;-68
2024/04/11 07:03:57;;;;;;;9.73;6.43;;;11.00;99.90;;;;;;5466903;26;20452;-68
2024/04/11 07:06:23;;;;;;;8.60;6.40;;;11.10;99.90;;;;;;5444029;26;20229;-67
2024/04/11 07:08:49;;;;;;;11.30;7.00;;;11.20;99.90;;;;;;5441184;26;20497;-67
2024/04/11 07:13:47;;;;;;;8.87;6.43;;;11.20;99.90;;;;;;5441486;26;20891;-68
2024/04/11 07:16:16;;;;;;;11.50;6.87;;;11.30;99.90;;;;;;5441218;26;20454;-67
2024/04/11 07:18:48;;;;;;;7.93;7.20;;;11.20;99.90;;;;;;5441113;26;20452;-67
2024/04/11 07:21:17;;;;;;;12.07;6.67;;;11.00;99.90;;;;;;5441277;26;20498;-67
2024/04/11 07:23:44;;;;;;;10.77;6.27;;;10.90;99.90;;;;;;5445713;26;20509;-68
2024/04/11 07:26:15;;;;;;;11.90;7.60;;;10.80;99.90;;;;;;5469735;26;20504;-68
2024/04/11 07:28:44;;;;;;;10.23;6.33;;;10.90;99.90;;;;;;5477383;26;20750;-68
2024/04/11 07:31:12;;;;;;;11.23;6.33;;;10.70;99.90;;;;;;5475722;26;20627;-68
2024/04/11 07:33:38;;;;;;;13.00;8.17;;;10.70;99.90;;;;;;5423768;26;21002;-68
2024/04/11 07:36:07;;;;;;;10.77;6.90;;;10.80;99.90;;;;;;5440796;26;20538;-68
2024/04/11 07:38:34;;;;;;;11.20;6.77;;;11.00;99.90;;;;;;5409729;26;20262;-69
2024/04/11 07:41:12;;;;;;;13.00;7.17;;;11.00;99.90;;;;;;5455786;26;20446;-68
2024/04/11 07:43:38;;;;;;;9.73;6.00;;;11.10;99.90;;;;;;5429841;26;20867;-69
2024/04/11 07:46:04;;;;;;;15.07;6.70;;;11.30;99.90;;;;;;5439238;26;20467;-69
2024/04/11 07:48:32;;;;;;;10.87;6.20;;;11.50;99.90;;;;;;5446171;26;20806;-68
2024/04/11 07:51:02;;;;;;;9.93;6.23;;;11.70;99.90;;;;;;5438397;26;20461;-69
2024/04/11 07:53:27;;;;;;;7.57;5.80;;;11.80;99.90;;;;;;5454806;26;20579;-68
2024/04/11 07:55:54;;;;;;;6.57;5.47;;;11.70;99.90;;;;;;5408865;26;20468;-67
2024/04/11 07:58:20;;;;;;;10.27;6.60;;;11.90;99.90;;;;;;5450240;26;20234;-67
2024/04/11 08:00:50;;;;;;;7.90;6.33;;;12.20;99.90;;;;;;5444043;26;20522;-67
2024/04/11 08:03:17;;;;;;;11.53;6.40;;;12.50;99.90;;;;;;5424188;26;20538;-67
2024/04/11 08:05:48;;;;;;;9.23;5.83;;;12.50;99.90;;;;;;5444827;26;20992;-66
2024/04/11 08:08:15;;;;;;;9.30;6.50;;;12.50;99.90;;;;;;5408560;26;20906;-67
2024/04/11 08:10:40;;;;;;;9.87;6.30;;;12.30;99.90;;;;;;5409353;26;20518;-68
2024/04/11 08:13:08;;;;;;;9.83;6.60;;;12.30;99.90;;;;;;5440470;26;20468;-67
2024/04/11 08:15:34;;;;;;;13.07;6.33;;;12.40;99.90;;;;;;5439617;26;20293;-67
2024/04/11 08:18:03;;;;;;;10.13;5.40;;;12.60;99.90;;;;;;5438858;26;21010;-68
2024/04/11 08:20:29;;;;;;;10.00;5.17;;;12.60;99.90;;;;;;5438659;26;20498;-68
2024/04/11 08:22:55;;;;;;;9.40;5.50;;;12.60;99.90;;;;;;5438347;26;20452;-68
2024/04/11 08:25:21;;;;;;;9.33;5.80;;;12.70;99.90;;;;;;5453909;26;20855;-67
2024/04/11 08:27:48;;;;;;;8.80;4.90;;;12.70;99.90;;;;;;5438433;26;20644;-67
2024/04/11 08:30:15;;;;;;;16.03;5.47;;;12.90;99.90;;;;;;5440175;26;21075;-68
2024/04/11 08:32:45;;;;;;;6.70;5.43;;;13.00;99.90;;;;;;5408847;26;20888;-68
2024/04/11 08:35:17;;;;;;;9.13;5.83;;;13.10;99.90;;;;;;5438736;26;20460;-68
2024/04/11 08:37:44;;;;;;;7.13;5.23;;;13.10;99.90;;;;;;5438646;26;20448;-68
2024/04/11 08:40:10;;;;;;;8.27;5.57;;;13.30;99.90;;;;;;5438267;26;20462;-68
2024/04/11 08:42:38;;;;;;;6.37;5.20;;;13.50;99.90;;;;;;5439562;26;20450;-68
2024/04/11 08:45:08;;;;;;;7.03;4.80;;;13.60;99.90;;;;;;5441179;26;20573;-68
2024/04/11 08:47:35;;;;;;;7.23;5.00;;;13.50;99.90;;;;;;5408393;26;20501;-69
2024/04/11 08:50:01;;;;;;;8.30;5.63;;;13.70;99.90;;;;;;5438733;26;20441;-67
2024/04/11 08:52:30;;;;;;;9.17;5.43;;;13.60;99.90;;;;;;5439909;26;20930;-68
2024/04/11 08:54:57;;;;;;;8.03;5.00;;;13.80;99.90;;;;;;5439715;26;20815;-67
2024/04/11 08:57:23;;;;;;;11.37;4.70;;;13.90;99.90;;;;;;5450514;26;20494;-67
2024/04/11 08:59:49;;;;;;;7.33;4.60;;;14.20;99.90;;;;;;5474701;26;20467;-67
2024/04/11 09:02:15;;;;;;;5.87;3.80;;;14.40;99.90;;;;;;5438027;26;20515;-67
2024/04/11 09:04:41;;;;;;;6.90;4.20;;;14.20;99.80;;;;;;5407995;26;20467;-68
2024/04/11 09:07:20;;;;;;;7.60;4.10;;;14.10;99.90;;;;;;5437971;26;20579;-67
2024/04/11 09:09:49;;;;;;;4.53;3.50;;;14.00;99.90;;;;;;5437936;26;20321;-68
2024/04/11 09:12:16;;;;;;;3.83;3.13;;;14.20;99.70;;;;;;5417979;26;20486;-68
2024/04/11 09:14:43;;;;;;;4.53;3.47;;;14.50;99.70;;;;;;5472789;26;20513;-68
2024/04/11 09:17:13;;;;;;;6.83;3.30;;;14.70;98.40;;;;;;5407703;26;20513;-68
2024/04/11 09:19:40;;;;;;;10.00;3.37;;;15.00;97.60;;;;;;5437775;26;20459;-68
2024/04/11 09:22:13;;;;;;;4.30;2.90;;;14.80;96.80;;;;;;5437845;26;20995;-69
2024/04/11 09:24:41;;;;;;;4.97;3.17;;;14.90;97.30;;;;;;5437491;26;20514;-67
2024/04/11 09:27:08;;;;;;;3.77;2.77;;;14.90;96.60;;;;;;5466721;26;20451;-68
2024/04/11 09:29:35;;;;;;;5.17;3.10;;;14.90;96.90;;;;;;5437970;26;20824;-68
2024/04/11 09:32:06;;;;;;;8.57;2.77;;;14.80;96.10;;;;;;5437644;26;20846;-68
2024/04/11 09:34:37;;;;;;;7.70;3.27;;;15.10;96.10;;;;;;5438740;26;20519;-68
2024/04/11 09:37:09;;;;;;;4.83;3.00;;;15.20;96.80;;;;;;5437025;26;20462;-68
2024/04/11 09:39:46;;;;;;;2.77;2.43;;;15.40;94.80;;;;;;5438010;26;20457;-68
2024/04/11 09:42:18;;;;;;;2.57;1.80;;;15.60;94.20;;;;;;5437570;26;20537;-68
2024/04/11 09:44:50;;;;;;;7.03;2.30;;;15.50;92.30;;;;;;5437265;26;20463;-68
2024/04/11 09:47:24;;;;;;;8.80;3.07;;;15.40;92.70;;;;;;5436923;26;20907;-68
2024/04/11 09:49:55;;;;;;;10.43;2.63;;;15.50;92.90;;;;;;5436994;26;20467;-67
2024/04/11 09:52:30;;;;;;;6.37;2.53;;;15.60;92.70;;;;;;5437282;26;20451;-68
2024/04/11 09:54:56;;;;;;;5.83;2.60;;;15.50;92.40;;;;;;5450067;26;20848;-69
2024/04/11 09:57:24;;;;;;;4.20;2.40;;;15.50;92.10;;;;;;5473596;26;20443;-68
2024/04/11 09:59:56;;;;;;;7.40;2.57;;;15.40;92.20;;;;;;5473272;26;20511;-68
2024/04/11 10:02:25;;;;;;;4.10;1.83;;;15.50;92.40;;;;;;5472014;26;20440;-69
2024/04/11 10:04:57;;;;;;;5.73;2.60;;;15.50;92.20;;;;;;5453317;26;20523;-69
2024/04/11 10:07:25;;;;;;;5.57;1.83;;;15.60;92.60;;;;;;5437124;26;20547;-68
2024/04/11 10:09:53;;;;;;;3.93;1.70;;;15.80;90.40;;;;;;5436933;26;20512;-69
2024/04/11 10:12:28;;;;;;;6.20;3.07;;;15.80;90.10;;;;;;5447722;26;20451;-68
2024/04/11 10:14:57;;;;;;;4.33;2.10;;;15.90;91.20;;;;;;5468822;26;20511;-69
2024/04/11 10:17:29;;;;;;;8.37;2.67;;;15.90;91.30;;;;;;5438395;26;20436;-69
2024/04/11 10:20:07;;;;;;;4.17;2.10;;;15.90;90.20;;;;;;5461904;26;20967;-68
2024/04/11 10:22:42;;;;;;;6.90;2.33;;;16.10;91.00;;;;;;5445877;26;20821;-68
2024/04/11 10:25:12;;;;;;;3.53;1.90;;;16.40;90.90;;;;;;5466886;26;20989;-68
2024/04/11 10:27:38;;;;;;;6.83;3.70;;;16.60;88.70;;;;;;5436866;26;20449;-68
2024/04/11 10:30:05;;;;;;;4.13;2.40;;;16.40;86.20;;;;;;5436834;26;20501;-68
2024/04/11 10:32:35;;;;;;;3.47;2.20;;;16.20;87.00;;;;;;5407474;26;20223;-68
2024/04/11 10:35:04;;;;;;;7.37;2.70;;;16.40;88.30;;;;;;5436679;26;20469;-67
2024/04/11 10:37:33;;;;;;;4.47;3.03;;;16.90;89.50;;;;;;5436429;26;20805;-68
2024/04/11 10:40:00;;;;;;;4.80;2.37;;;17.00;86.20;;;;;;5436245;26;20448;-67
2024/04/11 10:43:11;;;;;;;3.30;1.93;;;17.00;83.70;;;;;;5436309;26;20500;-67
2024/04/11 10:45:29;;;;;;;3.20;1.90;;;17.10;81.70;;;;;;5437766;26;20463;-68
2024/04/11 10:47:58;;;;;;;3.70;2.10;;;17.20;82.40;;;;;;5438795;26;20456;-67
2024/04/11 10:50:24;;;;;;;4.20;1.93;;;17.40;78.80;;;;;;5460141;26;20858;-68
2024/04/11 10:52:49;;;;;;;8.33;1.93;;;18.00;76.20;;;;;;5443053;26;20499;-68
2024/04/11 10:55:22;;;;;;;4.20;2.03;;;19.20;75.40;;;;;;5464531;26;20456;-68
2024/04/11 10:58:08;;;;;;;5.20;2.00;;;20.00;69.40;;;;;;5451142;26;20234;-68
2024/04/11 11:03:40;;;;;;;5.60;1.80;;;21.00;60.80;;;;;;5475142;26;21293;-67
2024/04/11 11:06:34;;;;;;;3.10;1.77;;;20.90;59.80;;;;;;5427378;26;20546;-68
2024/04/11 11:09:12;;;;;;;2.40;1.70;;;22.50;59.60;;;;;;5437279;26;20495;-69
2024/04/11 11:11:41;;;;;;;5.70;1.80;;;22.50;56.60;;;;;;5452746;26;20445;-68
2024/04/11 11:14:18;;;;;;;3.67;2.17;;;23.20;54.30;;;;;;5411775;26;20481;-68
2024/04/11 11:16:44;;;;;;;3.30;1.90;;;24.20;53.90;;;;;;5436557;26;20464;-69
2024/04/11 11:19:16;;;;;;;3.07;1.67;;;24.80;54.00;;;;;;5426334;26;20554;-69
2024/04/11 11:21:50;;;;;;;3.80;1.60;;;26.00;50.90;;;;;;5442795;26;20824;-69
2024/04/11 11:24:26;;;;;;;3.07;2.10;;;26.10;47.00;;;;;;5472814;26;20464;-68
2024/04/11 11:26:59;;;;;;;5.50;1.80;;;26.30;45.60;;;;;;5444303;26;20513;-69
2024/04/11 11:29:26;;;;;;;4.40;1.97;;;26.60;44.20;;;;;;5381192;26;20497;-69
2024/04/11 11:32:04;;;;;;;4.03;2.00;;;26.40;43.90;;;;;;5410170;26;20472;-68
2024/04/11 11:34:35;;;;;;;3.33;1.77;;;26.40;45.60;;;;;;5439802;26;20456;-69
2024/04/11 11:37:03;;;;;;;3.30;1.73;;;26.10;44.60;;;;;;5409951;26;20548;-68
2024/04/11 11:39:33;;;;;;;4.80;1.60;;;25.40;45.30;;;;;;5439900;26;21394;-68
2024/04/11 11:42:08;;;;;;;3.63;2.00;;;26.40;44.10;;;;;;5410881;26;20886;-68
2024/04/11 11:47:33;;;;;;;5.70;2.00;;;27.10;43.40;;;;;;5439229;26;20441;-68
2024/04/11 11:50:09;;;;;;;3.17;1.80;;;27.60;43.30;;;;;;5440504;26;20448;-68
2024/04/11 11:52:42;;;;;;;3.20;2.03;;;25.70;43.00;;;;;;5439022;26;20570;-68
2024/04/11 11:55:08;;;;;;;2.93;1.80;;;25.20;44.00;;;;;;5447242;26;20457;-68
2024/04/11 11:57:40;;;;;;;2.20;1.50;;;25.70;44.10;;;;;;5445415;26;20452;-69
2024/04/11 12:00:19;;;;;;;2.30;1.70;;;26.00;44.00;;;;;;5438286;26;21062;-68
2024/04/11 12:02:50;;;;;;;4.63;1.80;;;25.80;44.90;;;;;;5440335;26;20579;-68
2024/04/11 12:05:23;;;;;;;2.40;1.70;;;26.60;44.00;;;;;;5438507;26;21094;-68
2024/04/11 12:07:57;;;;;;;5.40;1.70;;;27.50;42.80;;;;;;5409728;26;20440;-68
2024/04/11 12:11:14;;;;;;;5.30;2.40;;;28.10;41.10;;;;;;5438892;26;20433;-69
2024/04/11 12:13:35;;;;;;;2.90;1.90;;;27.40;41.00;;;;;;5439814;26;20878;-69
2024/04/11 12:16:04;;;;;;;4.47;2.10;;;27.30;40.60;;;;;;5439087;26;20509;-69
2024/04/11 12:18:30;;;;;;;3.30;2.03;;;28.40;41.30;;;;;;5440534;26;20501;-68
2024/04/11 12:20:57;;;;;;;4.10;2.10;;;26.60;42.40;;;;;;5440227;26;20433;-69
2024/04/11 12:23:23;;;;;;;3.27;1.80;;;26.60;42.50;;;;;;5458953;26;20739;-67
2024/04/11 12:25:50;;;;;;;3.23;2.07;;;27.50;42.80;;;;;;5440503;26;20558;-68
2024/04/11 12:28:22;;;;;;;4.83;2.20;;;26.80;40.60;;;;;;5440146;26;20449;-69
2024/04/11 12:31:00;;;;;;;3.33;2.10;;;26.20;42.90;;;;;;5438399;26;20540;-69
2024/04/11 12:33:31;;;;;;;8.03;2.40;;;26.40;41.10;;;;;;5438036;26;20457;-69
2024/04/11 12:35:59;;;;;;;4.80;1.60;;;24.90;43.70;;;;;;5437602;26;21075;-69
2024/04/11 12:38:27;;;;;;;4.57;1.90;;;25.40;44.10;;;;;;5438235;26;21316;-69
2024/04/11 12:40:52;;;;;;;5.30;2.30;;;25.00;43.60;;;;;;5438306;26;20516;-69
2024/04/11 12:43:18;;;;;;;3.77;1.80;;;25.90;42.20;;;;;;5437981;26;20521;-69
2024/04/11 12:45:52;;;;;;;3.60;1.77;;;26.50;41.60;;;;;;5437932;26;20405;-69
2024/04/11 12:48:20;;;;;;;4.50;2.80;;;27.00;40.80;;;;;;5440155;26;20559;-69
2024/04/11 12:50:55;;;;;;;2.80;2.00;;;26.80;40.00;;;;;;5437604;26;20440;-69
2024/04/11 12:53:22;;;;;;;4.47;1.80;;;27.20;40.00;;;;;;5409975;26;20475;-69
2024/04/11 12:55:55;;;;;;;4.17;2.20;;;29.10;39.50;;;;;;5459324;26;20453;-69
2024/04/11 12:58:41;;;;;;;5.77;2.17;;;29.70;39.10;;;;;;5438310;26;20488;-69
2024/04/11 13:01:08;;;;;;;3.83;2.10;;;29.40;36.80;;;;;;5438372;26;21107;-68
2024/04/11 13:06:30;;;;;;;3.47;1.80;;;28.80;37.90;;;;;;5437991;26;20457;-69
2024/04/11 13:09:17;;;;;;;3.20;1.60;;;27.70;39.10;;;;;;5438155;26;20776;-69